Avenue, Maryland
Current Conditions -  °F | °C
As of 5:26 AM on Thursday 29 Jan 2015 (Local Time) from K2W6 Reporting Station
Clear Clear  
Wind Chill: 19°   Ceiling: Unl
Heat Index: 19°   Visibility: 10mi
Dew Point: 10°   Wind: 0mph
Humidity: 68%   Direction: NA
Pressure: 30.34"   Gusts: NA
Location:  38.26°N, 76.77°W
Report Text: K2W6 291026Z AUTO 00000KT 10SM CLR M07/M12 A3034 RMK AO1
Loading
Personal Weather Stations






























Interactive Weather Map New forecast layout! Learn more

10-Day Weather Forecast

Advertisements
Track Severe Weather on mobile